sensor_id;sensor_type;location;lat;lon;timestamp;pressure;altitude;pressure_sealevel;temperature;humidity
8705;BME280;4389;41.932;25.904;2022-08-21T00:02:23;99769.47;;;26.44;66.80
8705;BME280;4389;41.932;25.904;2022-08-21T00:04:51;99762.59;;;26.37;66.98
8705;BME280;4389;41.932;25.904;2022-08-21T00:07:19;99763.44;;;26.37;67.12
8705;BME280;4389;41.932;25.904;2022-08-21T00:09:47;99759.34;;;26.35;67.72
8705;BME280;4389;41.932;25.904;2022-08-21T00:12:14;99755.75;;;26.29;68.23
8705;BME280;4389;41.932;25.904;2022-08-21T00:14:41;99761.88;;;26.20;68.57
8705;BME280;4389;41.932;25.904;2022-08-21T00:17:08;99762.53;;;26.32;67.75
8705;BME280;4389;41.932;25.904;2022-08-21T00:19:35;99770.38;;;26.28;67.47
8705;BME280;4389;41.932;25.904;2022-08-21T00:22:02;99766.28;;;26.26;68.16
8705;BME280;4389;41.932;25.904;2022-08-21T00:24:30;99769.00;;;26.26;68.31
8705;BME280;4389;41.932;25.904;2022-08-21T00:26:58;99750.41;;;26.13;68.88
8705;BME280;4389;41.932;25.904;2022-08-21T00:29:25;99753.50;;;26.21;69.66
8705;BME280;4389;41.932;25.904;2022-08-21T00:31:52;99753.59;;;26.31;69.28
8705;BME280;4389;41.932;25.904;2022-08-21T00:34:20;99751.59;;;26.22;69.92
8705;BME280;4389;41.932;25.904;2022-08-21T00:36:46;99754.06;;;26.02;71.00
8705;BME280;4389;41.932;25.904;2022-08-21T00:39:13;99755.91;;;25.96;71.69
8705;BME280;4389;41.932;25.904;2022-08-21T00:41:41;99744.59;;;25.83;72.67
8705;BME280;4389;41.932;25.904;2022-08-21T00:44:14;99739.03;;;25.73;73.14
8705;BME280;4389;41.932;25.904;2022-08-21T00:46:42;99747.53;;;25.60;73.52
8705;BME280;4389;41.932;25.904;2022-08-21T00:49:11;99744.69;;;25.50;74.72
8705;BME280;4389;41.932;25.904;2022-08-21T00:51:42;99747.81;;;25.42;75.25
8705;BME280;4389;41.932;25.904;2022-08-21T00:54:11;99755.44;;;25.45;75.28
8705;BME280;4389;41.932;25.904;2022-08-21T00:56:38;99754.03;;;25.59;74.60
8705;BME280;4389;41.932;25.904;2022-08-21T00:59:05;99751.06;;;25.60;74.20
8705;BME280;4389;41.932;25.904;2022-08-21T01:01:34;99744.88;;;25.65;74.10
8705;BME280;4389;41.932;25.904;2022-08-21T01:04:01;99747.78;;;25.58;74.38
8705;BME280;4389;41.932;25.904;2022-08-21T01:06:28;99749.47;;;25.43;75.08
8705;BME280;4389;41.932;25.904;2022-08-21T01:08:55;99745.84;;;25.21;76.54
8705;BME280;4389;41.932;25.904;2022-08-21T01:11:22;99754.72;;;25.16;76.61
8705;BME280;4389;41.932;25.904;2022-08-21T01:13:49;99759.22;;;25.11;76.82
8705;BME280;4389;41.932;25.904;2022-08-21T01:16:19;99753.56;;;24.96;77.74
8705;BME280;4389;41.932;25.904;2022-08-21T01:18:49;99752.28;;;24.98;77.37
8705;BME280;4389;41.932;25.904;2022-08-21T01:21:19;99746.38;;;24.85;77.64
8705;BME280;4389;41.932;25.904;2022-08-21T01:23:48;99732.91;;;24.73;78.80
8705;BME280;4389;41.932;25.904;2022-08-21T01:26:18;99727.16;;;24.70;78.76
8705;BME280;4389;41.932;25.904;2022-08-21T01:28:49;99736.38;;;24.69;79.21
8705;BME280;4389;41.932;25.904;2022-08-21T01:31:22;99730.28;;;24.62;79.63
8705;BME280;4389;41.932;25.904;2022-08-21T01:33:49;99723.53;;;24.64;79.64
8705;BME280;4389;41.932;25.904;2022-08-21T01:36:18;99714.06;;;24.62;80.09
8705;BME280;4389;41.932;25.904;2022-08-21T01:38:45;99709.78;;;24.66;80.19
8705;BME280;4389;41.932;25.904;2022-08-21T01:41:12;99706.50;;;24.64;80.23
8705;BME280;4389;41.932;25.904;2022-08-21T01:43:40;99705.94;;;24.62;80.54
8705;BME280;4389;41.932;25.904;2022-08-21T01:46:08;99701.22;;;24.57;80.95
8705;BME280;4389;41.932;25.904;2022-08-21T01:48:35;99698.84;;;24.61;81.07
8705;BME280;4389;41.932;25.904;2022-08-21T01:51:02;99701.22;;;24.57;80.96
8705;BME280;4389;41.932;25.904;2022-08-21T01:53:31;99695.00;;;24.57;81.10
8705;BME280;4389;41.932;25.904;2022-08-21T01:55:59;99693.38;;;24.56;81.33
8705;BME280;4389;41.932;25.904;2022-08-21T01:58:26;99694.31;;;24.50;81.72
8705;BME280;4389;41.932;25.904;2022-08-21T02:00:53;99687.50;;;24.47;82.14
8705;BME280;4389;41.932;25.904;2022-08-21T02:03:20;99680.22;;;24.48;82.10
8705;BME280;4389;41.932;25.904;2022-08-21T02:05:47;99688.56;;;24.46;82.41
8705;BME280;4389;41.932;25.904;2022-08-21T02:08:14;99686.44;;;24.48;82.42
8705;BME280;4389;41.932;25.904;2022-08-21T02:10:42;99690.44;;;24.46;82.60
8705;BME280;4389;41.932;25.904;2022-08-21T02:13:08;99683.97;;;24.31;82.20
8705;BME280;4389;41.932;25.904;2022-08-21T02:15:35;99690.91;;;24.27;82.53
8705;BME280;4389;41.932;25.904;2022-08-21T02:18:02;99700.44;;;24.29;82.72
8705;BME280;4389;41.932;25.904;2022-08-21T02:20:34;99697.06;;;24.22;82.86
8705;BME280;4389;41.932;25.904;2022-08-21T02:23:02;99699.53;;;24.24;81.69
8705;BME280;4389;41.932;25.904;2022-08-21T02:25:29;99703.44;;;24.16;81.48
8705;BME280;4389;41.932;25.904;2022-08-21T02:27:59;99700.84;;;24.21;82.55
8705;BME280;4389;41.932;25.904;2022-08-21T02:30:29;99715.44;;;24.36;83.37
8705;BME280;4389;41.932;25.904;2022-08-21T02:32:57;99714.25;;;24.16;81.23
8705;BME280;4389;41.932;25.904;2022-08-21T02:35:25;99710.97;;;23.75;82.23
8705;BME280;4389;41.932;25.904;2022-08-21T02:37:54;99706.19;;;23.65;82.80
8705;BME280;4389;41.932;25.904;2022-08-21T02:40:29;99700.63;;;23.72;83.86
8705;BME280;4389;41.932;25.904;2022-08-21T02:43:00;99687.78;;;23.90;85.01
8705;BME280;4389;41.932;25.904;2022-08-21T02:45:28;99689.34;;;24.14;84.47
8705;BME280;4389;41.932;25.904;2022-08-21T02:47:57;99691.09;;;24.20;83.91
8705;BME280;4389;41.932;25.904;2022-08-21T02:50:26;99696.72;;;24.19;83.65
8705;BME280;4389;41.932;25.904;2022-08-21T02:52:54;99700.00;;;24.21;82.64
8705;BME280;4389;41.932;25.904;2022-08-21T02:55:22;99707.31;;;24.20;82.35
8705;BME280;4389;41.932;25.904;2022-08-21T02:57:49;99716.09;;;24.27;80.69
8705;BME280;4389;41.932;25.904;2022-08-21T03:00:17;99725.91;;;24.17;80.35
8705;BME280;4389;41.932;25.904;2022-08-21T03:02:46;99732.41;;;24.04;80.97
8705;BME280;4389;41.932;25.904;2022-08-21T03:05:14;99736.22;;;23.80;82.61
8705;BME280;4389;41.932;25.904;2022-08-21T03:07:42;99748.03;;;23.51;83.82
8705;BME280;4389;41.932;25.904;2022-08-21T03:10:10;99773.72;;;23.08;85.86
8705;BME280;4389;41.932;25.904;2022-08-21T03:12:37;99780.38;;;22.94;88.12
8705;BME280;4389;41.932;25.904;2022-08-21T03:15:05;99779.66;;;22.87;89.25
8705;BME280;4389;41.932;25.904;2022-08-21T03:17:33;99782.28;;;22.93;88.94
8705;BME280;4389;41.932;25.904;2022-08-21T03:20:00;99788.16;;;23.13;88.18
8705;BME280;4389;41.932;25.904;2022-08-21T03:22:28;99790.91;;;23.25;87.41
8705;BME280;4389;41.932;25.904;2022-08-21T03:24:55;99797.72;;;23.27;86.79
8705;BME280;4389;41.932;25.904;2022-08-21T03:27:22;99795.03;;;23.27;86.51
8705;BME280;4389;41.932;25.904;2022-08-21T03:29:52;99788.09;;;23.31;86.49
8705;BME280;4389;41.932;25.904;2022-08-21T03:32:19;99800.78;;;23.31;85.69
8705;BME280;4389;41.932;25.904;2022-08-21T03:34:47;99806.75;;;23.21;85.26
8705;BME280;4389;41.932;25.904;2022-08-21T03:37:15;99815.91;;;23.20;84.25
8705;BME280;4389;41.932;25.904;2022-08-21T03:39:43;99804.94;;;23.04;84.55
8705;BME280;4389;41.932;25.904;2022-08-21T03:42:10;99819.50;;;23.03;83.92
8705;BME280;4389;41.932;25.904;2022-08-21T03:44:38;99823.34;;;22.95;83.52
8705;BME280;4389;41.932;25.904;2022-08-21T03:47:05;99827.09;;;22.94;83.38
8705;BME280;4389;41.932;25.904;2022-08-21T03:49:33;99831.66;;;22.94;82.91
8705;BME280;4389;41.932;25.904;2022-08-21T03:52:01;99831.44;;;22.95;82.68
8705;BME280;4389;41.932;25.904;2022-08-21T03:54:29;99827.69;;;22.96;82.41
8705;BME280;4389;41.932;25.904;2022-08-21T03:56:56;99832.75;;;23.04;82.40
8705;BME280;4389;41.932;25.904;2022-08-21T03:59:23;99840.22;;;23.20;81.25
8705;BME280;4389;41.932;25.904;2022-08-21T04:01:52;99838.22;;;23.27;80.99
8705;BME280;4389;41.932;25.904;2022-08-21T04:04:19;99837.28;;;23.33;80.93
8705;BME280;4389;41.932;25.904;2022-08-21T04:06:46;99842.94;;;23.43;79.99
8705;BME280;4389;41.932;25.904;2022-08-21T04:09:15;99835.88;;;23.65;79.21
8705;BME280;4389;41.932;25.904;2022-08-21T04:11:42;99841.28;;;23.65;79.21
8705;BME280;4389;41.932;25.904;2022-08-21T04:14:09;99841.84;;;23.79;78.81
8705;BME280;4389;41.932;25.904;2022-08-21T04:16:35;99831.41;;;24.05;77.74
8705;BME280;4389;41.932;25.904;2022-08-21T04:19:02;99826.22;;;24.04;77.51
8705;BME280;4389;41.932;25.904;2022-08-21T04:21:29;99834.34;;;23.81;78.96
8705;BME280;4389;41.932;25.904;2022-08-21T04:23:57;99835.50;;;24.19;78.19
8705;BME280;4389;41.932;25.904;2022-08-21T04:26:26;99833.66;;;24.36;77.46
8705;BME280;4389;41.932;25.904;2022-08-21T04:28:53;99836.66;;;25.07;75.00
8705;BME280;4389;41.932;25.904;2022-08-21T04:31:21;99821.16;;;25.19;74.06
8705;BME280;4389;41.932;25.904;2022-08-21T04:33:48;99832.72;;;25.64;72.86
8705;BME280;4389;41.932;25.904;2022-08-21T04:36:15;99836.44;;;25.96;71.65
8705;BME280;4389;41.932;25.904;2022-08-21T04:38:43;99837.41;;;26.28;70.15
8705;BME280;4389;41.932;25.904;2022-08-21T04:41:10;99843.03;;;26.64;68.91
8705;BME280;4389;41.932;25.904;2022-08-21T04:43:39;99844.34;;;26.40;69.58
8705;BME280;4389;41.932;25.904;2022-08-21T04:46:05;99841.56;;;25.76;71.88
8705;BME280;4389;41.932;25.904;2022-08-21T04:48:33;99844.19;;;25.21;74.92
8705;BME280;4389;41.932;25.904;2022-08-21T04:51:02;99835.25;;;25.21;75.17
8705;BME280;4389;41.932;25.904;2022-08-21T04:53:34;99836.44;;;24.97;76.20
8705;BME280;4389;41.932;25.904;2022-08-21T04:56:05;99839.56;;;24.89;76.46
8705;BME280;4389;41.932;25.904;2022-08-21T04:58:36;99835.47;;;25.03;76.49
8705;BME280;4389;41.932;25.904;2022-08-21T05:01:07;99826.19;;;25.27;75.03
8705;BME280;4389;41.932;25.904;2022-08-21T05:03:36;99828.13;;;25.48;74.44
8705;BME280;4389;41.932;25.904;2022-08-21T05:06:04;99835.00;;;25.55;74.50
8705;BME280;4389;41.932;25.904;2022-08-21T05:08:32;99838.31;;;25.57;73.78
8705;BME280;4389;41.932;25.904;2022-08-21T05:11:02;99834.59;;;25.63;73.85
8705;BME280;4389;41.932;25.904;2022-08-21T05:13:29;99851.06;;;25.95;72.45
8705;BME280;4389;41.932;25.904;2022-08-21T05:15:57;99855.69;;;25.94;71.79
8705;BME280;4389;41.932;25.904;2022-08-21T05:18:26;99851.22;;;26.05;71.20
8705;BME280;4389;41.932;25.904;2022-08-21T05:20:52;99839.75;;;25.98;71.80
8705;BME280;4389;41.932;25.904;2022-08-21T05:23:19;99843.91;;;26.05;71.67
8705;BME280;4389;41.932;25.904;2022-08-21T05:25:46;99836.28;;;25.86;71.56
8705;BME280;4389;41.932;25.904;2022-08-21T05:28:13;99840.41;;;25.72;71.25
8705;BME280;4389;41.932;25.904;2022-08-21T05:30:40;99844.47;;;25.53;72.82
8705;BME280;4389;41.932;25.904;2022-08-21T05:33:07;99835.38;;;25.26;73.27
8705;BME280;4389;41.932;25.904;2022-08-21T05:35:36;99832.31;;;25.39;73.14
8705;BME280;4389;41.932;25.904;2022-08-21T05:38:04;99838.81;;;25.38;72.00
8705;BME280;4389;41.932;25.904;2022-08-21T05:40:31;99826.50;;;25.47;71.85
8705;BME280;4389;41.932;25.904;2022-08-21T05:42:59;99827.94;;;25.71;70.69
8705;BME280;4389;41.932;25.904;2022-08-21T05:45:28;99841.28;;;25.56;69.75
8705;BME280;4389;41.932;25.904;2022-08-21T05:47:56;99834.34;;;25.65;69.54
8705;BME280;4389;41.932;25.904;2022-08-21T05:50:23;99838.13;;;25.64;69.91
8705;BME280;4389;41.932;25.904;2022-08-21T05:52:51;99838.34;;;25.79;69.77
8705;BME280;4389;41.932;25.904;2022-08-21T05:55:18;99831.53;;;25.93;69.29
8705;BME280;4389;41.932;25.904;2022-08-21T05:57:45;99833.13;;;26.10;67.58
8705;BME280;4389;41.932;25.904;2022-08-21T06:00:13;99834.31;;;26.41;67.33
8705;BME280;4389;41.932;25.904;2022-08-21T06:02:40;99834.34;;;26.46;66.71
8705;BME280;4389;41.932;25.904;2022-08-21T06:05:07;99824.97;;;26.32;66.44
8705;BME280;4389;41.932;25.904;2022-08-21T06:07:34;99833.03;;;26.70;66.23
8705;BME280;4389;41.932;25.904;2022-08-21T06:10:03;99840.41;;;26.74;65.58
8705;BME280;4389;41.932;25.904;2022-08-21T06:12:30;99832.78;;;27.03;64.76
8705;BME280;4389;41.932;25.904;2022-08-21T06:14:56;99833.50;;;27.15;64.02
8705;BME280;4389;41.932;25.904;2022-08-21T06:17:23;99835.06;;;27.11;63.98
8705;BME280;4389;41.932;25.904;2022-08-21T06:19:51;99831.16;;;27.02;63.52
8705;BME280;4389;41.932;25.904;2022-08-21T06:22:19;99839.41;;;26.80;64.80
8705;BME280;4389;41.932;25.904;2022-08-21T06:24:46;99836.91;;;27.05;63.45
8705;BME280;4389;41.932;25.904;2022-08-21T06:27:14;99827.75;;;26.37;65.18
8705;BME280;4389;41.932;25.904;2022-08-21T06:29:43;99830.97;;;26.55;65.28
8705;BME280;4389;41.932;25.904;2022-08-21T06:32:13;99830.00;;;26.45;65.20
8705;BME280;4389;41.932;25.904;2022-08-21T06:34:41;99821.56;;;26.63;65.33
8705;BME280;4389;41.932;25.904;2022-08-21T06:37:08;99824.72;;;26.81;64.38
8705;BME280;4389;41.932;25.904;2022-08-21T06:39:35;99833.84;;;26.97;63.76
8705;BME280;4389;41.932;25.904;2022-08-21T06:42:02;99825.19;;;26.73;63.86
8705;BME280;4389;41.932;25.904;2022-08-21T06:44:31;99823.00;;;27.02;63.65
8705;BME280;4389;41.932;25.904;2022-08-21T06:46:58;99818.38;;;26.71;64.26
8705;BME280;4389;41.932;25.904;2022-08-21T06:49:25;99813.03;;;26.54;64.97
8705;BME280;4389;41.932;25.904;2022-08-21T06:51:52;99824.38;;;26.73;64.63
8705;BME280;4389;41.932;25.904;2022-08-21T06:54:19;99830.66;;;27.05;62.91
8705;BME280;4389;41.932;25.904;2022-08-21T06:56:46;99825.53;;;27.08;62.45
8705;BME280;4389;41.932;25.904;2022-08-21T06:59:13;99830.44;;;27.11;62.39
8705;BME280;4389;41.932;25.904;2022-08-21T07:01:41;99823.81;;;26.71;64.11
8705;BME280;4389;41.932;25.904;2022-08-21T07:04:08;99824.97;;;26.80;64.62
8705;BME280;4389;41.932;25.904;2022-08-21T07:06:35;99821.66;;;26.73;65.23
8705;BME280;4389;41.932;25.904;2022-08-21T07:09:02;99829.38;;;26.86;65.62
8705;BME280;4389;41.932;25.904;2022-08-21T07:11:29;99829.59;;;27.06;63.31
8705;BME280;4389;41.932;25.904;2022-08-21T07:13:56;99826.59;;;26.76;63.67
8705;BME280;4389;41.932;25.904;2022-08-21T07:16:24;99823.00;;;26.97;63.59
8705;BME280;4389;41.932;25.904;2022-08-21T07:18:52;99817.19;;;26.88;65.02
8705;BME280;4389;41.932;25.904;2022-08-21T07:21:19;99816.59;;;26.81;66.92
8705;BME280;4389;41.932;25.904;2022-08-21T07:23:48;99809.28;;;26.82;65.25
8705;BME280;4389;41.932;25.904;2022-08-21T07:26:21;99811.94;;;26.77;66.03
8705;BME280;4389;41.932;25.904;2022-08-21T07:28:48;99798.03;;;26.52;66.16
8705;BME280;4389;41.932;25.904;2022-08-21T07:31:17;99802.69;;;26.51;67.63
8705;BME280;4389;41.932;25.904;2022-08-21T07:33:44;99791.38;;;26.59;68.07
8705;BME280;4389;41.932;25.904;2022-08-21T07:36:13;99786.56;;;26.45;68.02
8705;BME280;4389;41.932;25.904;2022-08-21T07:38:40;99781.03;;;26.35;70.69
8705;BME280;4389;41.932;25.904;2022-08-21T07:41:13;99778.94;;;26.15;73.16
8705;BME280;4389;41.932;25.904;2022-08-21T07:43:41;99782.19;;;25.96;73.80
8705;BME280;4389;41.932;25.904;2022-08-21T07:46:09;99770.88;;;25.82;74.30
8705;BME280;4389;41.932;25.904;2022-08-21T07:48:36;99769.09;;;25.71;74.63
8705;BME280;4389;41.932;25.904;2022-08-21T07:51:06;99771.75;;;25.66;74.92
8705;BME280;4389;41.932;25.904;2022-08-21T07:53:36;99761.06;;;25.60;75.35
8705;BME280;4389;41.932;25.904;2022-08-21T07:56:06;99763.16;;;25.53;75.78
8705;BME280;4389;41.932;25.904;2022-08-21T07:58:36;99764.44;;;25.67;75.89
8705;BME280;4389;41.932;25.904;2022-08-21T08:01:03;99754.53;;;25.56;75.63
8705;BME280;4389;41.932;25.904;2022-08-21T08:03:31;99746.97;;;25.58;75.81
8705;BME280;4389;41.932;25.904;2022-08-21T08:05:57;99745.69;;;25.44;76.76
8705;BME280;4389;41.932;25.904;2022-08-21T08:08:24;99741.41;;;25.48;77.00
8705;BME280;4389;41.932;25.904;2022-08-21T08:10:53;99749.78;;;25.68;76.61
8705;BME280;4389;41.932;25.904;2022-08-21T08:13:22;99742.28;;;25.75;75.95
8705;BME280;4389;41.932;25.904;2022-08-21T08:15:50;99733.97;;;25.60;75.54
8705;BME280;4389;41.932;25.904;2022-08-21T08:18:16;99729.69;;;25.85;74.90
8705;BME280;4389;41.932;25.904;2022-08-21T08:20:43;99732.25;;;25.92;73.19
8705;BME280;4389;41.932;25.904;2022-08-21T08:23:10;99727.41;;;26.20;72.26
8705;BME280;4389;41.932;25.904;2022-08-21T08:25:37;99735.38;;;26.27;72.24
8705;BME280;4389;41.932;25.904;2022-08-21T08:28:06;99732.19;;;26.61;70.94
8705;BME280;4389;41.932;25.904;2022-08-21T08:30:34;99728.47;;;26.67;71.05
8705;BME280;4389;41.932;25.904;2022-08-21T08:33:01;99720.97;;;26.79;70.13
8705;BME280;4389;41.932;25.904;2022-08-21T08:35:28;99717.25;;;26.59;72.01
8705;BME280;4389;41.932;25.904;2022-08-21T08:37:54;99723.38;;;26.23;73.17
8705;BME280;4389;41.932;25.904;2022-08-21T08:40:28;99721.22;;;26.25;73.68
8705;BME280;4389;41.932;25.904;2022-08-21T08:42:59;99723.72;;;26.05;75.05
8705;BME280;4389;41.932;25.904;2022-08-21T08:45:29;99718.09;;;25.68;76.65
8705;BME280;4389;41.932;25.904;2022-08-21T08:48:01;99715.06;;;25.65;76.65
8705;BME280;4389;41.932;25.904;2022-08-21T08:50:38;99719.84;;;25.58;77.66
8705;BME280;4389;41.932;25.904;2022-08-21T08:53:10;99715.59;;;25.62;77.34
8705;BME280;4389;41.932;25.904;2022-08-21T08:55:41;99718.84;;;25.64;77.34
8705;BME280;4389;41.932;25.904;2022-08-21T08:58:12;99718.22;;;25.57;77.79
8705;BME280;4389;41.932;25.904;2022-08-21T09:00:47;99718.09;;;25.47;77.71
8705;BME280;4389;41.932;25.904;2022-08-21T09:03:15;99729.19;;;25.67;77.01
8705;BME280;4389;41.932;25.904;2022-08-21T09:05:46;99718.72;;;25.54;77.85
8705;BME280;4389;41.932;25.904;2022-08-21T09:08:23;99714.56;;;25.68;76.82
8705;BME280;4389;41.932;25.904;2022-08-21T09:10:58;99721.63;;;25.69;76.72
8705;BME280;4389;41.932;25.904;2022-08-21T09:13:33;99728.97;;;25.90;76.85
8705;BME280;4389;41.932;25.904;2022-08-21T09:16:09;99730.13;;;26.20;74.90
8705;BME280;4389;41.932;25.904;2022-08-21T09:18:46;99734.75;;;26.20;74.72
8705;BME280;4389;41.932;25.904;2022-08-21T09:21:23;99731.66;;;26.38;73.48
8705;BME280;4389;41.932;25.904;2022-08-21T09:24:00;99727.47;;;26.25;73.60
8705;BME280;4389;41.932;25.904;2022-08-21T09:26:31;99721.13;;;26.15;73.62
8705;BME280;4389;41.932;25.904;2022-08-21T09:29:02;99721.50;;;26.02;74.11
8705;BME280;4389;41.932;25.904;2022-08-21T09:31:35;99725.13;;;26.34;72.87
8705;BME280;4389;41.932;25.904;2022-08-21T09:34:05;99713.91;;;26.25;73.02
8705;BME280;4389;41.932;25.904;2022-08-21T09:36:37;99710.56;;;26.18;73.09
8705;BME280;4389;41.932;25.904;2022-08-21T09:39:07;99717.00;;;26.34;71.96
8705;BME280;4389;41.932;25.904;2022-08-21T09:41:35;99721.41;;;26.40;70.87
8705;BME280;4389;41.932;25.904;2022-08-21T09:44:03;99710.88;;;26.48;71.15
8705;BME280;4389;41.932;25.904;2022-08-21T09:46:30;99714.28;;;26.60;71.02
8705;BME280;4389;41.932;25.904;2022-08-21T09:49:02;99715.09;;;26.61;69.92
8705;BME280;4389;41.932;25.904;2022-08-21T09:51:31;99721.16;;;26.73;69.90
8705;BME280;4389;41.932;25.904;2022-08-21T09:54:12;99724.88;;;26.93;69.22
8705;BME280;4389;41.932;25.904;2022-08-21T09:56:53;99716.13;;;27.18;68.86
8705;BME280;4389;41.932;25.904;2022-08-21T09:59:38;99717.22;;;27.68;66.61
8705;BME280;4389;41.932;25.904;2022-08-21T10:02:23;99725.63;;;27.62;66.40
8705;BME280;4389;41.932;25.904;2022-08-21T10:04:57;99715.56;;;27.67;65.87
8705;BME280;4389;41.932;25.904;2022-08-21T10:07:27;99714.34;;;27.38;66.02
8705;BME280;4389;41.932;25.904;2022-08-21T10:09:59;99709.63;;;27.75;64.80
8705;BME280;4389;41.932;25.904;2022-08-21T10:12:33;99705.63;;;27.93;65.10
8705;BME280;4389;41.932;25.904;2022-08-21T10:15:09;99700.28;;;28.18;64.07
8705;BME280;4389;41.932;25.904;2022-08-21T10:17:45;99698.59;;;27.97;64.79
8705;BME280;4389;41.932;25.904;2022-08-21T10:20:22;99703.66;;;28.60;63.21
8705;BME280;4389;41.932;25.904;2022-08-21T10:23:00;99700.91;;;28.75;62.63
8705;BME280;4389;41.932;25.904;2022-08-21T10:25:33;99700.91;;;28.60;62.25
8705;BME280;4389;41.932;25.904;2022-08-21T10:28:06;99694.88;;;28.38;62.25
8705;BME280;4389;41.932;25.904;2022-08-21T10:30:45;99691.09;;;28.79;62.43
8705;BME280;4389;41.932;25.904;2022-08-21T10:33:23;99689.47;;;28.58;62.96
8705;BME280;4389;41.932;25.904;2022-08-21T10:36:00;99691.66;;;28.76;61.59
8705;BME280;4389;41.932;25.904;2022-08-21T10:38:49;99693.84;;;28.74;60.85
8705;BME280;4389;41.932;25.904;2022-08-21T10:41:27;99679.41;;;28.58;62.24
8705;BME280;4389;41.932;25.904;2022-08-21T10:44:03;99680.75;;;28.56;61.41
8705;BME280;4389;41.932;25.904;2022-08-21T10:46:41;99688.38;;;28.94;60.05
8705;BME280;4389;41.932;25.904;2022-08-21T10:49:21;99685.13;;;28.62;61.02
8705;BME280;4389;41.932;25.904;2022-08-21T10:52:08;99686.19;;;28.86;60.48
8705;BME280;4389;41.932;25.904;2022-08-21T10:54:48;99680.19;;;29.19;58.86
8705;BME280;4389;41.932;25.904;2022-08-21T10:57:25;99685.06;;;29.22;59.16
8705;BME280;4389;41.932;25.904;2022-08-21T10:59:57;99678.28;;;28.84;58.96
8705;BME280;4389;41.932;25.904;2022-08-21T11:02:30;99670.94;;;28.50;60.98
8705;BME280;4389;41.932;25.904;2022-08-21T11:05:01;99669.88;;;28.46;60.91
8705;BME280;4389;41.932;25.904;2022-08-21T11:07:35;99671.44;;;28.27;60.71
8705;BME280;4389;41.932;25.904;2022-08-21T11:10:10;99662.72;;;28.25;61.07
8705;BME280;4389;41.932;25.904;2022-08-21T11:12:42;99662.72;;;28.35;60.91
8705;BME280;4389;41.932;25.904;2022-08-21T11:15:22;99660.59;;;28.77;60.28
8705;BME280;4389;41.932;25.904;2022-08-21T11:17:54;99663.84;;;28.89;58.33
8705;BME280;4389;41.932;25.904;2022-08-21T11:20:29;99654.59;;;29.00;58.67
8705;BME280;4389;41.932;25.904;2022-08-21T11:23:07;99648.06;;;28.96;57.30
8705;BME280;4389;41.932;25.904;2022-08-21T11:25:37;99642.59;;;28.86;57.25
8705;BME280;4389;41.932;25.904;2022-08-21T11:28:09;99640.97;;;28.65;58.17
8705;BME280;4389;41.932;25.904;2022-08-21T11:30:48;99634.97;;;28.78;58.97
8705;BME280;4389;41.932;25.904;2022-08-21T11:33:34;99636.72;;;29.47;56.83
8705;BME280;4389;41.932;25.904;2022-08-21T11:36:14;99634.81;;;29.43;56.23
8705;BME280;4389;41.932;25.904;2022-08-21T11:38:51;99644.47;;;29.20;56.30
8705;BME280;4389;41.932;25.904;2022-08-21T11:41:28;99635.66;;;29.43;55.68
8705;BME280;4389;41.932;25.904;2022-08-21T11:44:04;99626.22;;;29.06;56.14
8705;BME280;4389;41.932;25.904;2022-08-21T11:46:39;99620.78;;;28.86;57.64
8705;BME280;4389;41.932;25.904;2022-08-21T11:49:32;99616.44;;;28.95;56.78
8705;BME280;4389;41.932;25.904;2022-08-21T11:52:08;99616.31;;;29.40;56.15
8705;BME280;4389;41.932;25.904;2022-08-21T11:54:42;99604.75;;;29.63;54.82
8705;BME280;4389;41.932;25.904;2022-08-21T11:57:16;99600.69;;;30.04;53.53
8705;BME280;4389;41.932;25.904;2022-08-21T11:59:48;99594.94;;;30.43;52.85
8705;BME280;4389;41.932;25.904;2022-08-21T12:02:21;99584.44;;;30.55;52.44
8705;BME280;4389;41.932;25.904;2022-08-21T12:04:54;99587.75;;;30.52;51.69
8705;BME280;4389;41.932;25.904;2022-08-21T12:07:32;99583.03;;;30.29;52.60
8705;BME280;4389;41.932;25.904;2022-08-21T12:10:06;99581.81;;;29.69;53.03
8705;BME280;4389;41.932;25.904;2022-08-21T12:12:35;99579.09;;;29.69;53.23
8705;BME280;4389;41.932;25.904;2022-08-21T12:15:24;99568.78;;;29.51;54.81
8705;BME280;4389;41.932;25.904;2022-08-21T12:17:58;99557.34;;;29.49;54.37
8705;BME280;4389;41.932;25.904;2022-08-21T12:20:35;99552.47;;;29.41;54.52
8705;BME280;4389;41.932;25.904;2022-08-21T12:23:05;99549.56;;;29.22;54.66
8705;BME280;4389;41.932;25.904;2022-08-21T12:25:39;99547.38;;;29.24;55.66
8705;BME280;4389;41.932;25.904;2022-08-21T12:28:08;99547.97;;;29.11;56.49
8705;BME280;4389;41.932;25.904;2022-08-21T12:30:38;99549.84;;;29.16;55.65
8705;BME280;4389;41.932;25.904;2022-08-21T12:33:19;99553.16;;;29.08;56.01
8705;BME280;4389;41.932;25.904;2022-08-21T12:35:47;99551.00;;;29.05;55.87
8705;BME280;4389;41.932;25.904;2022-08-21T12:38:18;99561.06;;;29.09;55.21
8705;BME280;4389;41.932;25.904;2022-08-21T12:40:52;99544.13;;;29.22;54.91
8705;BME280;4389;41.932;25.904;2022-08-21T12:43:26;99551.00;;;29.05;55.80
8705;BME280;4389;41.932;25.904;2022-08-21T12:45:55;99543.28;;;29.22;55.40
8705;BME280;4389;41.932;25.904;2022-08-21T12:48:31;99541.06;;;29.34;55.01
8705;BME280;4389;41.932;25.904;2022-08-21T12:51:09;99544.22;;;29.56;54.07
8705;BME280;4389;41.932;25.904;2022-08-21T12:53:44;99544.41;;;29.69;53.00
8705;BME280;4389;41.932;25.904;2022-08-21T12:56:16;99536.28;;;29.64;53.54
8705;BME280;4389;41.932;25.904;2022-08-21T12:58:48;99535.44;;;29.64;53.16
8705;BME280;4389;41.932;25.904;2022-08-21T13:01:20;99534.81;;;29.77;52.80
8705;BME280;4389;41.932;25.904;2022-08-21T13:03:51;99532.63;;;29.79;52.86
8705;BME280;4389;41.932;25.904;2022-08-21T13:06:20;99537.81;;;30.19;52.08
8705;BME280;4389;41.932;25.904;2022-08-21T13:08:49;99543.38;;;30.37;51.04
8705;BME280;4389;41.932;25.904;2022-08-21T13:11:23;99542.66;;;30.55;50.32
8705;BME280;4389;41.932;25.904;2022-08-21T13:13:51;99544.78;;;30.29;50.63
8705;BME280;4389;41.932;25.904;2022-08-21T13:16:24;99543.97;;;29.96;51.46
8705;BME280;4389;41.932;25.904;2022-08-21T13:18:55;99544.31;;;30.23;51.00
8705;BME280;4389;41.932;25.904;2022-08-21T13:21:28;99544.91;;;30.20;51.16
8705;BME280;4389;41.932;25.904;2022-08-21T13:24:08;99544.22;;;29.99;51.67
8705;BME280;4389;41.932;25.904;2022-08-21T13:26:38;99554.63;;;30.31;51.34